sensor_id;sensor_type;location;lat;lon;timestamp;P1;durP1;ratioP1;P2;durP2;ratioP2
4049;SDS011;2039;50.894;6.888;2022-09-24T00:01:23;71.83;;;16.03;;
4049;SDS011;2039;50.894;6.888;2022-09-24T00:04:10;74.10;;;14.27;;
4049;SDS011;2039;50.894;6.888;2022-09-24T00:06:38;72.87;;;14.20;;
4049;SDS011;2039;50.894;6.888;2022-09-24T00:09:05;73.30;;;13.30;;
4049;SDS011;2039;50.894;6.888;2022-09-24T00:11:31;73.07;;;13.97;;
4049;SDS011;2039;50.894;6.888;2022-09-24T00:13:57;73.87;;;20.20;;
4049;SDS011;2039;50.894;6.888;2022-09-24T00:16:24;74.37;;;17.70;;
4049;SDS011;2039;50.894;6.888;2022-09-24T00:18:51;73.20;;;20.40;;
4049;SDS011;2039;50.894;6.888;2022-09-24T00:21:22;78.70;;;17.97;;
4049;SDS011;2039;50.894;6.888;2022-09-24T00:23:50;73.27;;;15.53;;
4049;SDS011;2039;50.894;6.888;2022-09-24T00:26:18;75.50;;;19.00;;
4049;SDS011;2039;50.894;6.888;2022-09-24T00:29:03;73.87;;;18.07;;
4049;SDS011;2039;50.894;6.888;2022-09-24T00:31:29;72.90;;;17.07;;
4049;SDS011;2039;50.894;6.888;2022-09-24T00:33:56;71.17;;;15.03;;
4049;SDS011;2039;50.894;6.888;2022-09-24T00:36:22;71.37;;;16.00;;
4049;SDS011;2039;50.894;6.888;2022-09-24T00:38:52;72.37;;;18.30;;
4049;SDS011;2039;50.894;6.888;2022-09-24T00:41:20;76.60;;;17.30;;
4049;SDS011;2039;50.894;6.888;2022-09-24T00:43:48;73.13;;;17.50;;
4049;SDS011;2039;50.894;6.888;2022-09-24T00:49:00;72.87;;;16.93;;
4049;SDS011;2039;50.894;6.888;2022-09-24T00:51:34;73.23;;;14.27;;
4049;SDS011;2039;50.894;6.888;2022-09-24T00:54:03;73.97;;;13.97;;
4049;SDS011;2039;50.894;6.888;2022-09-24T00:56:36;70.47;;;15.90;;
4049;SDS011;2039;50.894;6.888;2022-09-24T00:59:04;70.90;;;14.13;;
4049;SDS011;2039;50.894;6.888;2022-09-24T01:01:31;72.77;;;16.03;;
4049;SDS011;2039;50.894;6.888;2022-09-24T01:03:57;73.40;;;16.83;;
4049;SDS011;2039;50.894;6.888;2022-09-24T01:06:24;73.53;;;16.37;;
4049;SDS011;2039;50.894;6.888;2022-09-24T01:08:50;70.80;;;17.40;;
4049;SDS011;2039;50.894;6.888;2022-09-24T01:16:54;72.97;;;19.60;;
4049;SDS011;2039;50.894;6.888;2022-09-24T01:25:31;72.97;;;18.97;;
4049;SDS011;2039;50.894;6.888;2022-09-24T01:31:05;74.57;;;22.90;;
4049;SDS011;2039;50.894;6.888;2022-09-24T01:33:40;75.87;;;24.40;;
4049;SDS011;2039;50.894;6.888;2022-09-24T01:36:08;75.67;;;24.10;;
4049;SDS011;2039;50.894;6.888;2022-09-24T01:38:40;75.47;;;23.00;;
4049;SDS011;2039;50.894;6.888;2022-09-24T01:41:08;76.13;;;25.77;;
4049;SDS011;2039;50.894;6.888;2022-09-24T01:43:36;77.00;;;26.37;;
4049;SDS011;2039;50.894;6.888;2022-09-24T01:46:03;76.53;;;27.80;;
4049;SDS011;2039;50.894;6.888;2022-09-24T01:48:31;75.80;;;27.87;;
4049;SDS011;2039;50.894;6.888;2022-09-24T01:51:15;84.07;;;30.03;;
4049;SDS011;2039;50.894;6.888;2022-09-24T01:56:23;74.77;;;26.30;;
4049;SDS011;2039;50.894;6.888;2022-09-24T01:58:55;80.50;;;27.63;;
4049;SDS011;2039;50.894;6.888;2022-09-24T02:01:23;74.97;;;29.13;;
4049;SDS011;2039;50.894;6.888;2022-09-24T02:03:59;76.97;;;28.00;;
4049;SDS011;2039;50.894;6.888;2022-09-24T02:06:40;81.83;;;34.07;;
4049;SDS011;2039;50.894;6.888;2022-09-24T02:09:35;76.60;;;26.87;;
4049;SDS011;2039;50.894;6.888;2022-09-24T02:12:09;74.27;;;22.57;;
4049;SDS011;2039;50.894;6.888;2022-09-24T02:14:43;76.20;;;23.80;;
4049;SDS011;2039;50.894;6.888;2022-09-24T02:17:13;74.40;;;24.73;;
4049;SDS011;2039;50.894;6.888;2022-09-24T02:19:40;78.37;;;28.93;;
4049;SDS011;2039;50.894;6.888;2022-09-24T02:22:06;77.47;;;29.33;;
4049;SDS011;2039;50.894;6.888;2022-09-24T02:24:48;76.47;;;26.47;;
4049;SDS011;2039;50.894;6.888;2022-09-24T02:27:17;76.10;;;26.50;;
4049;SDS011;2039;50.894;6.888;2022-09-24T02:29:43;75.67;;;24.67;;
4049;SDS011;2039;50.894;6.888;2022-09-24T02:32:10;76.20;;;27.50;;
4049;SDS011;2039;50.894;6.888;2022-09-24T02:34:43;75.80;;;27.17;;
4049;SDS011;2039;50.894;6.888;2022-09-24T02:37:14;80.20;;;31.90;;
4049;SDS011;2039;50.894;6.888;2022-09-24T02:39:41;84.33;;;27.97;;
4049;SDS011;2039;50.894;6.888;2022-09-24T02:42:08;78.70;;;28.07;;
4049;SDS011;2039;50.894;6.888;2022-09-24T02:44:35;77.10;;;25.17;;
4049;SDS011;2039;50.894;6.888;2022-09-24T02:47:01;77.60;;;30.03;;
4049;SDS011;2039;50.894;6.888;2022-09-24T02:49:27;77.97;;;28.00;;
4049;SDS011;2039;50.894;6.888;2022-09-24T02:51:53;76.07;;;28.83;;
4049;SDS011;2039;50.894;6.888;2022-09-24T02:54:19;76.00;;;26.27;;
4049;SDS011;2039;50.894;6.888;2022-09-24T02:56:46;76.00;;;27.47;;
4049;SDS011;2039;50.894;6.888;2022-09-24T02:59:12;76.90;;;28.67;;
4049;SDS011;2039;50.894;6.888;2022-09-24T03:01:38;76.17;;;24.77;;
4049;SDS011;2039;50.894;6.888;2022-09-24T03:04:04;78.33;;;30.27;;
4049;SDS011;2039;50.894;6.888;2022-09-24T03:06:30;77.13;;;23.50;;
4049;SDS011;2039;50.894;6.888;2022-09-24T03:09:00;77.67;;;28.57;;
4049;SDS011;2039;50.894;6.888;2022-09-24T03:11:28;78.30;;;28.37;;
4049;SDS011;2039;50.894;6.888;2022-09-24T03:13:55;75.47;;;23.83;;
4049;SDS011;2039;50.894;6.888;2022-09-24T03:16:21;75.17;;;23.83;;
4049;SDS011;2039;50.894;6.888;2022-09-24T03:18:47;74.80;;;21.70;;
4049;SDS011;2039;50.894;6.888;2022-09-24T03:21:14;74.27;;;25.97;;
4049;SDS011;2039;50.894;6.888;2022-09-24T03:23:41;75.73;;;25.53;;
4049;SDS011;2039;50.894;6.888;2022-09-24T03:26:07;76.93;;;27.50;;
4049;SDS011;2039;50.894;6.888;2022-09-24T03:28:33;76.60;;;24.63;;
4049;SDS011;2039;50.894;6.888;2022-09-24T03:30:59;74.30;;;23.77;;
4049;SDS011;2039;50.894;6.888;2022-09-24T03:33:32;77.73;;;28.00;;
4049;SDS011;2039;50.894;6.888;2022-09-24T03:36:26;75.53;;;22.40;;
4049;SDS011;2039;50.894;6.888;2022-09-24T03:38:52;76.60;;;22.03;;
4049;SDS011;2039;50.894;6.888;2022-09-24T03:41:20;77.57;;;19.20;;
4049;SDS011;2039;50.894;6.888;2022-09-24T03:43:47;76.10;;;19.83;;
4049;SDS011;2039;50.894;6.888;2022-09-24T03:46:13;75.13;;;20.73;;
4049;SDS011;2039;50.894;6.888;2022-09-24T03:48:41;78.30;;;22.52;;
4049;SDS011;2039;50.894;6.888;2022-09-24T03:51:09;73.50;;;21.70;;
4049;SDS011;2039;50.894;6.888;2022-09-24T03:53:36;78.00;;;22.33;;
4049;SDS011;2039;50.894;6.888;2022-09-24T03:56:02;76.40;;;23.23;;
4049;SDS011;2039;50.894;6.888;2022-09-24T03:58:30;76.47;;;20.70;;
4049;SDS011;2039;50.894;6.888;2022-09-24T04:00:58;77.50;;;22.60;;
4049;SDS011;2039;50.894;6.888;2022-09-24T04:03:24;76.70;;;20.07;;
4049;SDS011;2039;50.894;6.888;2022-09-24T04:05:50;78.47;;;20.60;;
4049;SDS011;2039;50.894;6.888;2022-09-24T04:08:16;78.90;;;22.00;;
4049;SDS011;2039;50.894;6.888;2022-09-24T04:10:46;76.20;;;21.42;;
4049;SDS011;2039;50.894;6.888;2022-09-24T04:13:13;77.53;;;25.25;;
4049;SDS011;2039;50.894;6.888;2022-09-24T04:15:39;77.75;;;23.50;;
4049;SDS011;2039;50.894;6.888;2022-09-24T04:18:05;78.30;;;21.07;;
4049;SDS011;2039;50.894;6.888;2022-09-24T04:20:31;75.20;;;23.97;;
4049;SDS011;2039;50.894;6.888;2022-09-24T04:22:58;75.20;;;21.10;;
4049;SDS011;2039;50.894;6.888;2022-09-24T04:25:26;76.60;;;23.63;;
4049;SDS011;2039;50.894;6.888;2022-09-24T04:27:55;74.60;;;23.42;;
4049;SDS011;2039;50.894;6.888;2022-09-24T04:30:23;77.37;;;28.60;;
4049;SDS011;2039;50.894;6.888;2022-09-24T04:32:49;78.37;;;36.77;;
4049;SDS011;2039;50.894;6.888;2022-09-24T04:35:16;79.40;;;36.00;;
4049;SDS011;2039;50.894;6.888;2022-09-24T04:37:43;81.07;;;38.40;;
4049;SDS011;2039;50.894;6.888;2022-09-24T04:40:09;80.60;;;35.30;;
4049;SDS011;2039;50.894;6.888;2022-09-24T04:42:37;85.20;;;39.37;;
4049;SDS011;2039;50.894;6.888;2022-09-24T04:45:07;82.27;;;40.77;;
4049;SDS011;2039;50.894;6.888;2022-09-24T04:47:34;84.30;;;42.30;;
4049;SDS011;2039;50.894;6.888;2022-09-24T04:50:04;85.10;;;36.35;;
4049;SDS011;2039;50.894;6.888;2022-09-24T04:52:31;77.20;;;31.00;;
4049;SDS011;2039;50.894;6.888;2022-09-24T04:54:57;76.83;;;25.43;;
4049;SDS011;2039;50.894;6.888;2022-09-24T04:57:24;81.50;;;30.13;;
4049;SDS011;2039;50.894;6.888;2022-09-24T04:59:50;80.13;;;31.65;;
4049;SDS011;2039;50.894;6.888;2022-09-24T05:02:16;77.10;;;29.20;;
4049;SDS011;2039;50.894;6.888;2022-09-24T05:04:42;79.72;;;31.38;;
4049;SDS011;2039;50.894;6.888;2022-09-24T05:07:08;81.80;;;36.53;;
4049;SDS011;2039;50.894;6.888;2022-09-24T05:09:35;77.90;;;28.35;;
4049;SDS011;2039;50.894;6.888;2022-09-24T05:12:01;85.50;;;24.70;;
4049;SDS011;2039;50.894;6.888;2022-09-24T05:14:27;76.40;;;26.23;;
4049;SDS011;2039;50.894;6.888;2022-09-24T05:16:53;75.47;;;28.10;;
4049;SDS011;2039;50.894;6.888;2022-09-24T05:19:19;79.10;;;31.23;;
4049;SDS011;2039;50.894;6.888;2022-09-24T05:21:44;74.70;;;25.10;;
4049;SDS011;2039;50.894;6.888;2022-09-24T05:24:10;79.93;;;26.50;;
4049;SDS011;2039;50.894;6.888;2022-09-24T05:26:36;77.75;;;23.92;;
4049;SDS011;2039;50.894;6.888;2022-09-24T05:29:23;78.25;;;22.30;;
4049;SDS011;2039;50.894;6.888;2022-09-24T05:31:52;73.82;;;19.98;;
4049;SDS011;2039;50.894;6.888;2022-09-24T05:34:17;77.00;;;21.80;;
4049;SDS011;2039;50.894;6.888;2022-09-24T05:36:43;78.57;;;26.27;;
4049;SDS011;2039;50.894;6.888;2022-09-24T05:39:09;76.70;;;24.52;;
4049;SDS011;2039;50.894;6.888;2022-09-24T05:41:37;79.00;;;27.27;;
4049;SDS011;2039;50.894;6.888;2022-09-24T05:44:03;76.53;;;23.45;;
4049;SDS011;2039;50.894;6.888;2022-09-24T05:46:29;75.32;;;23.05;;
4049;SDS011;2039;50.894;6.888;2022-09-24T05:48:55;76.73;;;20.60;;
4049;SDS011;2039;50.894;6.888;2022-09-24T05:51:21;74.80;;;23.23;;
4049;SDS011;2039;50.894;6.888;2022-09-24T05:53:47;75.57;;;21.13;;
4049;SDS011;2039;50.894;6.888;2022-09-24T05:56:14;77.70;;;22.60;;
4049;SDS011;2039;50.894;6.888;2022-09-24T05:58:40;75.30;;;21.40;;
4049;SDS011;2039;50.894;6.888;2022-09-24T06:01:05;81.10;;;23.13;;
4049;SDS011;2039;50.894;6.888;2022-09-24T06:03:31;82.67;;;21.00;;
4049;SDS011;2039;50.894;6.888;2022-09-24T06:05:59;79.80;;;18.80;;
4049;SDS011;2039;50.894;6.888;2022-09-24T06:08:26;76.13;;;19.53;;
4049;SDS011;2039;50.894;6.888;2022-09-24T06:11:00;79.85;;;22.10;;
4049;SDS011;2039;50.894;6.888;2022-09-24T06:13:27;75.40;;;19.13;;
4049;SDS011;2039;50.894;6.888;2022-09-24T06:16:03;77.40;;;16.60;;
4049;SDS011;2039;50.894;6.888;2022-09-24T06:18:37;75.13;;;22.30;;
4049;SDS011;2039;50.894;6.888;2022-09-24T06:21:05;75.47;;;17.73;;
4049;SDS011;2039;50.894;6.888;2022-09-24T06:23:33;74.40;;;20.23;;
4049;SDS011;2039;50.894;6.888;2022-09-24T06:25:59;79.67;;;22.00;;
4049;SDS011;2039;50.894;6.888;2022-09-24T06:28:25;75.82;;;18.98;;
4049;SDS011;2039;50.894;6.888;2022-09-24T06:30:51;72.93;;;17.50;;
4049;SDS011;2039;50.894;6.888;2022-09-24T06:33:17;79.88;;;20.00;;
4049;SDS011;2039;50.894;6.888;2022-09-24T06:35:44;75.03;;;19.40;;
4049;SDS011;2039;50.894;6.888;2022-09-24T06:38:11;75.27;;;23.17;;
4049;SDS011;2039;50.894;6.888;2022-09-24T06:40:42;77.83;;;24.87;;
4049;SDS011;2039;50.894;6.888;2022-09-24T06:43:14;76.77;;;23.57;;
4049;SDS011;2039;50.894;6.888;2022-09-24T06:45:42;75.43;;;21.90;;
4049;SDS011;2039;50.894;6.888;2022-09-24T06:48:09;72.67;;;18.07;;
4049;SDS011;2039;50.894;6.888;2022-09-24T06:50:38;78.50;;;24.10;;
4049;SDS011;2039;50.894;6.888;2022-09-24T06:53:05;76.80;;;26.87;;
4049;SDS011;2039;50.894;6.888;2022-09-24T06:55:32;83.70;;;39.00;;
4049;SDS011;2039;50.894;6.888;2022-09-24T06:58:03;80.07;;;36.37;;
4049;SDS011;2039;50.894;6.888;2022-09-24T07:00:30;84.30;;;38.13;;
4049;SDS011;2039;50.894;6.888;2022-09-24T07:02:55;80.50;;;32.13;;
4049;SDS011;2039;50.894;6.888;2022-09-24T07:05:21;83.63;;;38.57;;
4049;SDS011;2039;50.894;6.888;2022-09-24T07:07:47;80.17;;;36.20;;
4049;SDS011;2039;50.894;6.888;2022-09-24T07:10:12;84.37;;;42.47;;
4049;SDS011;2039;50.894;6.888;2022-09-24T07:12:39;82.53;;;46.63;;
4049;SDS011;2039;50.894;6.888;2022-09-24T07:15:06;85.17;;;45.10;;
4049;SDS011;2039;50.894;6.888;2022-09-24T07:17:33;86.37;;;43.87;;
4049;SDS011;2039;50.894;6.888;2022-09-24T07:19:58;84.40;;;46.40;;
4049;SDS011;2039;50.894;6.888;2022-09-24T07:22:24;84.70;;;42.50;;
4049;SDS011;2039;50.894;6.888;2022-09-24T07:24:50;80.80;;;42.03;;
4049;SDS011;2039;50.894;6.888;2022-09-24T07:27:16;84.50;;;40.53;;
4049;SDS011;2039;50.894;6.888;2022-09-24T07:29:45;82.50;;;42.30;;
4049;SDS011;2039;50.894;6.888;2022-09-24T07:32:11;85.10;;;43.60;;
4049;SDS011;2039;50.894;6.888;2022-09-24T07:34:37;83.37;;;42.87;;
4049;SDS011;2039;50.894;6.888;2022-09-24T07:37:02;81.80;;;39.23;;
4049;SDS011;2039;50.894;6.888;2022-09-24T07:39:28;82.00;;;36.03;;
4049;SDS011;2039;50.894;6.888;2022-09-24T07:41:54;82.43;;;30.73;;
4049;SDS011;2039;50.894;6.888;2022-09-24T07:44:20;78.83;;;29.30;;
4049;SDS011;2039;50.894;6.888;2022-09-24T07:46:49;80.67;;;33.63;;
4049;SDS011;2039;50.894;6.888;2022-09-24T07:49:15;78.70;;;32.20;;
4049;SDS011;2039;50.894;6.888;2022-09-24T07:51:41;80.47;;;32.83;;
4049;SDS011;2039;50.894;6.888;2022-09-24T07:54:07;81.50;;;37.20;;
4049;SDS011;2039;50.894;6.888;2022-09-24T07:56:34;79.83;;;32.50;;
4049;SDS011;2039;50.894;6.888;2022-09-24T07:59:00;74.63;;;21.00;;
4049;SDS011;2039;50.894;6.888;2022-09-24T08:01:26;77.37;;;24.40;;
4049;SDS011;2039;50.894;6.888;2022-09-24T08:03:51;78.27;;;25.97;;
4049;SDS011;2039;50.894;6.888;2022-09-24T08:06:18;83.77;;;29.80;;
4049;SDS011;2039;50.894;6.888;2022-09-24T08:08:48;77.57;;;27.83;;
4049;SDS011;2039;50.894;6.888;2022-09-24T08:11:16;82.50;;;26.30;;
4049;SDS011;2039;50.894;6.888;2022-09-24T08:13:42;76.20;;;27.27;;
4049;SDS011;2039;50.894;6.888;2022-09-24T08:16:09;75.20;;;20.33;;
4049;SDS011;2039;50.894;6.888;2022-09-24T08:18:35;74.87;;;20.10;;
4049;SDS011;2039;50.894;6.888;2022-09-24T08:21:05;77.27;;;20.00;;
4049;SDS011;2039;50.894;6.888;2022-09-24T08:23:36;76.47;;;18.37;;
4049;SDS011;2039;50.894;6.888;2022-09-24T08:26:03;71.83;;;15.80;;
4049;SDS011;2039;50.894;6.888;2022-09-24T08:28:30;73.87;;;15.93;;
4049;SDS011;2039;50.894;6.888;2022-09-24T08:30:57;74.50;;;18.00;;
4049;SDS011;2039;50.894;6.888;2022-09-24T08:33:24;75.40;;;16.20;;
4049;SDS011;2039;50.894;6.888;2022-09-24T08:35:50;75.50;;;17.37;;
4049;SDS011;2039;50.894;6.888;2022-09-24T08:38:16;76.33;;;16.37;;
4049;SDS011;2039;50.894;6.888;2022-09-24T08:40:55;73.93;;;15.40;;
4049;SDS011;2039;50.894;6.888;2022-09-24T08:46:31;76.23;;;14.70;;
4049;SDS011;2039;50.894;6.888;2022-09-24T08:49:29;73.17;;;14.93;;
4049;SDS011;2039;50.894;6.888;2022-09-24T08:52:08;74.00;;;15.00;;
4049;SDS011;2039;50.894;6.888;2022-09-24T08:54:48;75.87;;;15.60;;
4049;SDS011;2039;50.894;6.888;2022-09-24T08:57:15;78.80;;;17.00;;
4049;SDS011;2039;50.894;6.888;2022-09-24T08:59:43;75.47;;;14.63;;
4049;SDS011;2039;50.894;6.888;2022-09-24T09:08:12;74.80;;;13.87;;
4049;SDS011;2039;50.894;6.888;2022-09-24T09:10:45;74.03;;;13.20;;
4049;SDS011;2039;50.894;6.888;2022-09-24T09:13:33;78.00;;;14.80;;
4049;SDS011;2039;50.894;6.888;2022-09-24T09:16:08;74.43;;;13.00;;
4049;SDS011;2039;50.894;6.888;2022-09-24T09:18:46;74.97;;;13.33;;
4049;SDS011;2039;50.894;6.888;2022-09-24T09:21:15;73.07;;;11.87;;
4049;SDS011;2039;50.894;6.888;2022-09-24T09:23:47;76.00;;;12.80;;
4049;SDS011;2039;50.894;6.888;2022-09-24T09:26:14;73.10;;;12.87;;
4049;SDS011;2039;50.894;6.888;2022-09-24T09:28:43;78.70;;;13.17;;
4049;SDS011;2039;50.894;6.888;2022-09-24T09:39:29;77.93;;;13.20;;
4049;SDS011;2039;50.894;6.888;2022-09-24T09:42:25;77.67;;;13.87;;
4049;SDS011;2039;50.894;6.888;2022-09-24T09:47:57;80.23;;;16.50;;
4049;SDS011;2039;50.894;6.888;2022-09-24T09:50:29;79.27;;;15.50;;
4049;SDS011;2039;50.894;6.888;2022-09-24T09:53:18;76.70;;;14.13;;
4049;SDS011;2039;50.894;6.888;2022-09-24T09:55:54;76.83;;;14.57;;
4049;SDS011;2039;50.894;6.888;2022-09-24T09:58:24;89.70;;;16.60;;
4049;SDS011;2039;50.894;6.888;2022-09-24T10:00:52;79.63;;;14.47;;
4049;SDS011;2039;50.894;6.888;2022-09-24T10:03:53;82.80;;;14.00;;
4049;SDS011;2039;50.894;6.888;2022-09-24T10:06:24;78.07;;;14.07;;
4049;SDS011;2039;50.894;6.888;2022-09-24T10:08:52;81.33;;;13.90;;
4049;SDS011;2039;50.894;6.888;2022-09-24T10:11:18;76.00;;;12.70;;
4049;SDS011;2039;50.894;6.888;2022-09-24T10:13:46;76.53;;;13.40;;
4049;SDS011;2039;50.894;6.888;2022-09-24T10:16:25;79.50;;;13.60;;
4049;SDS011;2039;50.894;6.888;2022-09-24T10:18:50;87.50;;;13.10;;
4049;SDS011;2039;50.894;6.888;2022-09-24T10:21:29;76.80;;;14.43;;
4049;SDS011;2039;50.894;6.888;2022-09-24T10:23:59;78.60;;;15.10;;
4049;SDS011;2039;50.894;6.888;2022-09-24T10:26:39;80.77;;;16.20;;
4049;SDS011;2039;50.894;6.888;2022-09-24T10:29:14;79.63;;;15.67;;
4049;SDS011;2039;50.894;6.888;2022-09-24T10:32:05;78.20;;;13.57;;
4049;SDS011;2039;50.894;6.888;2022-09-24T10:34:38;85.40;;;15.43;;
4049;SDS011;2039;50.894;6.888;2022-09-24T10:37:11;80.43;;;14.63;;
4049;SDS011;2039;50.894;6.888;2022-09-24T10:39:39;81.83;;;15.57;;
4049;SDS011;2039;50.894;6.888;2022-09-24T10:42:05;78.83;;;15.23;;
4049;SDS011;2039;50.894;6.888;2022-09-24T10:44:48;77.90;;;16.03;;
4049;SDS011;2039;50.894;6.888;2022-09-24T10:57:53;79.60;;;14.80;;
4049;SDS011;2039;50.894;6.888;2022-09-24T11:00:39;77.83;;;14.43;;
4049;SDS011;2039;50.894;6.888;2022-09-24T11:25:47;83.60;;;15.00;;
4049;SDS011;2039;50.894;6.888;2022-09-24T11:34:24;82.30;;;15.23;;
4049;SDS011;2039;50.894;6.888;2022-09-24T11:42:14;82.50;;;16.57;;
4049;SDS011;2039;50.894;6.888;2022-09-24T11:53:30;80.07;;;14.63;;
4049;SDS011;2039;50.894;6.888;2022-09-24T11:56:05;81.73;;;16.03;;
4049;SDS011;2039;50.894;6.888;2022-09-24T12:01:47;84.10;;;17.03;;
4049;SDS011;2039;50.894;6.888;2022-09-24T12:04:20;87.00;;;16.93;;
4049;SDS011;2039;50.894;6.888;2022-09-24T12:06:56;86.43;;;17.70;;
4049;SDS011;2039;50.894;6.888;2022-09-24T12:09:37;87.40;;;17.77;;
4049;SDS011;2039;50.894;6.888;2022-09-24T12:12:11;90.33;;;19.37;;
4049;SDS011;2039;50.894;6.888;2022-09-24T12:15:06;83.27;;;16.67;;
4049;SDS011;2039;50.894;6.888;2022-09-24T12:17:53;81.53;;;14.10;;
4049;SDS011;2039;50.894;6.888;2022-09-24T12:20:25;79.70;;;13.43;;
4049;SDS011;2039;50.894;6.888;2022-09-24T12:22:56;77.70;;;12.70;;
4049;SDS011;2039;50.894;6.888;2022-09-24T12:25:28;79.83;;;15.20;;
4049;SDS011;2039;50.894;6.888;2022-09-24T12:27:58;83.80;;;11.27;;
4049;SDS011;2039;50.894;6.888;2022-09-24T12:36:28;76.53;;;11.50;;
4049;SDS011;2039;50.894;6.888;2022-09-24T12:39:08;75.40;;;10.17;;
4049;SDS011;2039;50.894;6.888;2022-09-24T12:41:38;76.60;;;10.57;;
4049;SDS011;2039;50.894;6.888;2022-09-24T12:46:54;78.40;;;10.17;;
4049;SDS011;2039;50.894;6.888;2022-09-24T12:51:51;77.03;;;11.50;;
4049;SDS011;2039;50.894;6.888;2022-09-24T12:59:54;76.13;;;11.33;;
4049;SDS011;2039;50.894;6.888;2022-09-24T13:02:22;75.13;;;11.27;;
4049;SDS011;2039;50.894;6.888;2022-09-24T13:05:02;75.97;;;11.30;;
4049;SDS011;2039;50.894;6.888;2022-09-24T13:07:40;75.33;;;10.33;;
4049;SDS011;2039;50.894;6.888;2022-09-24T13:10:10;75.47;;;10.90;;
4049;SDS011;2039;50.894;6.888;2022-09-24T13:12:45;76.80;;;11.23;;
4049;SDS011;2039;50.894;6.888;2022-09-24T13:15:55;87.60;;;11.07;;
4049;SDS011;2039;50.894;6.888;2022-09-24T13:20:33;75.40;;;10.47;;
4049;SDS011;2039;50.894;6.888;2022-09-24T13:25:54;73.30;;;9.57;;
4049;SDS011;2039;50.894;6.888;2022-09-24T13:28:25;74.97;;;10.30;;
4049;SDS011;2039;50.894;6.888;2022-09-24T13:30:55;73.87;;;9.20;;
4049;SDS011;2039;50.894;6.888;2022-09-24T13:33:28;72.90;;;9.00;;
4049;SDS011;2039;50.894;6.888;2022-09-24T13:36:13;73.07;;;9.10;;
4049;SDS011;2039;50.894;6.888;2022-09-24T13:39:03;74.07;;;9.37;;
4049;SDS011;2039;50.894;6.888;2022-09-24T13:44:30;76.13;;;8.90;;
4049;SDS011;2039;50.894;6.888;2022-09-24T13:47:13;72.37;;;8.30;;
4049;SDS011;2039;50.894;6.888;2022-09-24T13:50:14;73.47;;;8.93;;
4049;SDS011;2039;50.894;6.888;2022-09-24T13:55:21;72.17;;;8.50;;
4049;SDS011;2039;50.894;6.888;2022-09-24T13:57:48;73.87;;;8.20;;
4049;SDS011;2039;50.894;6.888;2022-09-24T14:00:16;74.10;;;8.57;;
4049;SDS011;2039;50.894;6.888;2022-09-24T14:02:50;73.07;;;8.40;;
4049;SDS011;2039;50.894;6.888;2022-09-24T14:05:16;71.73;;;8.03;;
4049;SDS011;2039;50.894;6.888;2022-09-24T14:07:56;72.67;;;9.43;;
4049;SDS011;2039;50.894;6.888;2022-09-24T14:10:25;74.10;;;9.40;;
4049;SDS011;2039;50.894;6.888;2022-09-24T14:13:00;75.93;;;9.20;;
4049;SDS011;2039;50.894;6.888;2022-09-24T14:15:56;75.73;;;10.67;;
4049;SDS011;2039;50.894;6.888;2022-09-24T14:18:24;80.37;;;10.73;;
4049;SDS011;2039;50.894;6.888;2022-09-24T14:21:11;79.10;;;10.60;;
4049;SDS011;2039;50.894;6.888;2022-09-24T14:26:26;75.97;;;10.90;;
4049;SDS011;2039;50.894;6.888;2022-09-24T14:28:58;73.50;;;10.80;;
4049;SDS011;2039;50.894;6.888;2022-09-24T14:31:29;77.40;;;10.43;;
4049;SDS011;2039;50.894;6.888;2022-09-24T14:33:55;74.67;;;10.67;;
4049;SDS011;2039;50.894;6.888;2022-09-24T14:36:23;73.43;;;9.47;;
4049;SDS011;2039;50.894;6.888;2022-09-24T14:38:55;73.93;;;9.63;;
4049;SDS011;2039;50.894;6.888;2022-09-24T14:41:29;74.40;;;9.73;;
4049;SDS011;2039;50.894;6.888;2022-09-24T14:43:58;72.90;;;9.33;;
4049;SDS011;2039;50.894;6.888;2022-09-24T14:46:31;74.00;;;9.33;;
4049;SDS011;2039;50.894;6.888;2022-09-24T14:52:27;72.00;;;9.53;;
4049;SDS011;2039;50.894;6.888;2022-09-24T14:57:35;74.37;;;10.30;;
4049;SDS011;2039;50.894;6.888;2022-09-24T15:00:16;75.30;;;10.73;;
4049;SDS011;2039;50.894;6.888;2022-09-24T15:02:42;75.43;;;9.43;;
4049;SDS011;2039;50.894;6.888;2022-09-24T15:05:25;76.23;;;10.60;;
4049;SDS011;2039;50.894;6.888;2022-09-24T15:11:03;72.30;;;9.67;;
4049;SDS011;2039;50.894;6.888;2022-09-24T15:18:56;72.30;;;8.80;;
4049;SDS011;2039;50.894;6.888;2022-09-24T15:21:34;74.00;;;9.80;;
4049;SDS011;2039;50.894;6.888;2022-09-24T15:24:00;77.60;;;10.30;;
4049;SDS011;2039;50.894;6.888;2022-09-24T15:26:30;77.83;;;9.00;;
4049;SDS011;2039;50.894;6.888;2022-09-24T15:28:58;77.70;;;9.97;;
4049;SDS011;2039;50.894;6.888;2022-09-24T15:31:25;73.30;;;8.83;;
4049;SDS011;2039;50.894;6.888;2022-09-24T15:33:51;75.33;;;9.13;;
4049;SDS011;2039;50.894;6.888;2022-09-24T15:36:17;72.27;;;8.77;;
4049;SDS011;2039;50.894;6.888;2022-09-24T15:38:47;83.67;;;10.90;;
4049;SDS011;2039;50.894;6.888;2022-09-24T15:41:15;73.00;;;9.67;;
4049;SDS011;2039;50.894;6.888;2022-09-24T15:43:41;74.17;;;10.23;;
4049;SDS011;2039;50.894;6.888;2022-09-24T15:46:06;73.27;;;10.23;;
4049;SDS011;2039;50.894;6.888;2022-09-24T15:48:32;74.07;;;11.77;;
4049;SDS011;2039;50.894;6.888;2022-09-24T15:50:58;71.97;;;13.17;;
4049;SDS011;2039;50.894;6.888;2022-09-24T15:53:26;74.90;;;17.30;;
4049;SDS011;2039;50.894;6.888;2022-09-24T15:55:55;75.97;;;15.37;;
4049;SDS011;2039;50.894;6.888;2022-09-24T15:58:25;76.60;;;16.80;;
4049;SDS011;2039;50.894;6.888;2022-09-24T16:00:51;76.47;;;16.67;;
4049;SDS011;2039;50.894;6.888;2022-09-24T16:05:45;76.80;;;17.80;;
4049;SDS011;2039;50.894;6.888;2022-09-24T16:08:12;80.07;;;15.50;;
4049;SDS011;2039;50.894;6.888;2022-09-24T16:10:38;81.87;;;14.10;;
4049;SDS011;2039;50.894;6.888;2022-09-24T16:13:04;74.37;;;14.20;;
4049;SDS011;2039;50.894;6.888;2022-09-24T16:15:32;76.87;;;13.27;;
4049;SDS011;2039;50.894;6.888;2022-09-24T16:17:58;79.60;;;13.97;;
4049;SDS011;2039;50.894;6.888;2022-09-24T16:20:26;77.40;;;14.77;;
4049;SDS011;2039;50.894;6.888;2022-09-24T16:22:52;76.90;;;13.37;;
4049;SDS011;2039;50.894;6.888;2022-09-24T16:25:17;78.27;;;14.60;;
4049;SDS011;2039;50.894;6.888;2022-09-24T16:27:43;78.57;;;14.03;;
4049;SDS011;2039;50.894;6.888;2022-09-24T16:30:09;74.40;;;13.30;;
4049;SDS011;2039;50.894;6.888;2022-09-24T16:32:35;74.10;;;12.30;;
4049;SDS011;2039;50.894;6.888;2022-09-24T16:35:01;77.17;;;14.03;;
4049;SDS011;2039;50.894;6.888;2022-09-24T16:37:26;78.13;;;13.10;;
4049;SDS011;2039;50.894;6.888;2022-09-24T16:39:52;77.30;;;14.17;;
4049;SDS011;2039;50.894;6.888;2022-09-24T16:42:19;74.47;;;12.20;;
4049;SDS011;2039;50.894;6.888;2022-09-24T16:44:45;76.37;;;12.90;;
4049;SDS011;2039;50.894;6.888;2022-09-24T16:47:10;75.20;;;13.20;;
4049;SDS011;2039;50.894;6.888;2022-09-24T16:49:40;75.23;;;11.40;;
4049;SDS011;2039;50.894;6.888;2022-09-24T16:52:06;77.17;;;12.93;;
4049;SDS011;2039;50.894;6.888;2022-09-24T16:54:32;75.37;;;12.63;;
4049;SDS011;2039;50.894;6.888;2022-09-24T16:56:58;75.97;;;12.90;;
4049;SDS011;2039;50.894;6.888;2022-09-24T16:59:25;74.17;;;11.37;;
4049;SDS011;2039;50.894;6.888;2022-09-24T17:01:51;77.37;;;14.17;;
4049;SDS011;2039;50.894;6.888;2022-09-24T17:04:18;82.70;;;16.10;;
4049;SDS011;2039;50.894;6.888;2022-09-24T17:06:44;84.40;;;18.83;;
4049;SDS011;2039;50.894;6.888;2022-09-24T17:09:11;89.23;;;19.80;;
4049;SDS011;2039;50.894;6.888;2022-09-24T17:11:56;81.20;;;15.77;;
4049;SDS011;2039;50.894;6.888;2022-09-24T17:14:22;77.00;;;12.87;;
4049;SDS011;2039;50.894;6.888;2022-09-24T17:16:48;75.10;;;12.63;;
4049;SDS011;2039;50.894;6.888;2022-09-24T17:19:14;76.67;;;14.50;;
4049;SDS011;2039;50.894;6.888;2022-09-24T17:21:40;77.80;;;15.67;;
4049;SDS011;2039;50.894;6.888;2022-09-24T17:24:10;83.37;;;16.30;;
4049;SDS011;2039;50.894;6.888;2022-09-24T17:26:36;81.87;;;16.47;;
4049;SDS011;2039;50.894;6.888;2022-09-24T17:29:02;77.37;;;14.20;;